Tropical Cyclones
[Index]
Main Index Home Page Stock Weather Photos Extreme Storms Discussion Storm News and Storm Chasing Reports Tropical Cyclones / Hurricanes / Typhoons Weather Data and Links Wild Fires / Bushfires Weather Observation Techniques Weather Picture Catalogue Tornado Pictures and Reports Stock Video Footage and DVDs for sale
Season 2011-2012 Tropical Cyclone IRINA Track Map
Season 2011-2012 Summaries: [BoM-AU] [JTWC-AU] [JTWC-SIO] [JTWC-SPAC] [JTWC-SH]
<<- Previous TC | JTWC 2011-2012 Season | Next TC ->>

click for intensity scale information  Lat/long Grid: Show Hide

 Date Labels: Show Hide

Joint Typhoon Warning Centre Cyclone Data

Name: IRINA

26 Feb 2012 06:00 UTC to 10 Mar 2012 12:00 UTC

    date/time    lat    long     hPa   cat  kts
2012-02-26 06   12.5    51.4    1007         20          
2012-02-26 12   13.1    50.5    1007         20          
2012-02-26 18   13.8    49.6    1004         25          
2012-02-27 00   14.0    48.6    1004         25          
2012-02-27 06   14.4    47.6    1004         25          
2012-02-27 12   15.1    46.7    1004         25          
2012-02-27 18   15.7    45.8    1003         25          
2012-02-28 00   15.5    45.0    1004         25          
2012-02-28 06   15.7    44.5    1004         25          
2012-02-28 12   15.9    44.1    1004         25          
2012-02-28 18   16.2    43.5     999         25          
2012-02-29 00   16.4    43.6    1000         30          
2012-02-29 06   16.3    43.4     993    1    40          
2012-02-29 12   16.1    43.6     989    1    45          
2012-02-29 15   16.4    43.8     989    1    45          
2012-02-29 18   16.6    43.6     978    2    60          
2012-02-29 18   16.6    43.6     978    2    60          
2012-03-01 00   17.1    43.7     978    2    60          
2012-03-01 00   17.1    43.7     978    2    60          
2012-03-01 06   18.1    43.9     978    2    60          
2012-03-01 06   18.1    43.9     978    2    60          
2012-03-01 12   19.8    43.8     978    2    60          
2012-03-01 12   19.8    43.8     978    2    60          
2012-03-01 18   21.1    43.3     978    2    60          
2012-03-01 18   21.1    43.3     978    2    60          
2012-03-02 00   22.3    42.4     982    2    55          
2012-03-02 00   22.3    42.4     982    2    55          
2012-03-02 06   23.6    41.5     982    2    55          
2012-03-02 06   23.6    41.5     982    2    55          
2012-03-02 12   24.4    40.1     985    1    50          
2012-03-02 18   25.1    39.0     989    1    45          
2012-03-03 00   25.4    37.7     993    1    40          
2012-03-03 06   25.6    36.4     996         35          
2012-03-03 12   25.5    35.2     993    1    40          
2012-03-03 18   26.0    34.5     989    1    45          
2012-03-04 00   26.2    34.2     989    1    45          
2012-03-04 06   26.4    34.0     989    1    45          
2012-03-04 12   27.3    34.1     989    1    45          
2012-03-04 18   28.6    34.5     993    1    50          
2012-03-05 00   29.6    34.6     982    2    55          
2012-03-05 06   30.3    34.9     982    2    55          
2012-03-05 12   30.6    35.6     982    2    55          
2012-03-05 18   30.4    37.0     989    1    45          
2012-03-06 00   30.5    37.9     989    1    45          
2012-03-06 06   30.7    38.5     993    1    40          
2012-03-06 12   30.4    39.4     996         35          
2012-03-06 18   30.0    40.7     996         35          
2012-03-07 00   29.7    41.0     996         35          
2012-03-07 06   29.4    41.0     996         35          
2012-03-07 12   29.4    40.8     996         35          
2012-03-07 18   29.4    40.6     996         35          
2012-03-08 00   29.4    40.5     993    1    40          
2012-03-08 06   29.5    40.3     989    1    45          
2012-03-08 12   29.7    40.1     989    1    45          
2012-03-08 18   29.5    39.7     989    1    45          
2012-03-09 00   29.4    39.4     993    1    40          
2012-03-09 06   29.5    38.7     989    1    45          
2012-03-09 12   29.5    37.8     996         35          
2012-03-09 18   29.5    36.9    1000         30          
2012-03-10 00   29.2    36.5    1000         30          
2012-03-10 06   29.0    36.0    1004         25          
2012-03-10 12   28.7    35.7    1004         25          
Winds are 1-min average.

Tropical cyclone tracks developed by Michael Bath using data from the Joint Typhoon Warning Centre Best Tracks and Google Maps.


[Australian Severe Weather index] [Copyright Notice] [Email Contacts] [Search This Site] [Privacy Policy]
Document: tropical_cyclone_irina.htm Updated: 28 June 2017